Terminal Aerodrome Forecast
Issued by NWS Nashville, TN

Home | Current Version | Previous Version | Text Only | Print | Product List | Glossary On
Versions: 1 2 3 4 5 6 7 8 9 10 11 12 13 14 15 16 17 18 19 20 21
442
FTUS44 KOHX 112329
TAFCSV
TAF
KCSV 112329Z 1200/1224 22009KT P6SM SCT200
     FM120600 28009KT P6SM BKN200
     FM120800 31013KT P6SM VCSH BKN025
     FM121200 32014G22KT P6SM VCSH BKN015
     FM121800 30015G25KT P6SM SCT025=

USA.gov is the U.S. government's official web portal to all federal, state and local government web resources and services.